Truth — WYV5559 — position and weather

sailwx.info

Track history (hours):
 
Tides and Currents Weather Stations Pressure Air Temp Water Temp Dewpoint Dewpoint Depression Visibility Wind Speed Wind Dir Waves Ship Positions

Truth

Owner: TRUTH AQUATIES INC, SANTA BARBARA, CA. More information available from US FCC via Universal Licensing System and Coast Guard Vessel Documentation Center.

Last reported at 2015-Aug-26 02:20 UTC. Time now 2015-Aug-30 19:57 UTC.
Position N 33°43' W 118°24'.

Length 22 m.

Type: Diving. MMSI: 367384840.

Date/timePositionNaut miles runAvg speedWind from/ knotsBaromVisibWave heightAir tempDewpointWater temp
2015-Aug-26 02:20N 33°43' W 118°24'26 9.2
2015-Aug-25 23:31N 33°33' W 117°55'9 9.2
2015-Aug-25 22:33N 33°29' W 117°46'  
2015-Aug-21 16:28N 33°13' W 117°32'6 0.5
2015-Aug-21 04:11N 33°11' W 117°25'6 9.9
2015-Aug-21 03:33N 33°06' W 117°29'9 8.3
2015-Aug-21 02:29N 32°59' W 117°35'1 1.5
2015-Aug-21 01:33N 32°58' W 117°37'1 1.2
2015-Aug-21 00:29N 32°57' W 117°37'1 1.2
2015-Aug-20 23:32N 32°58' W 117°37'3 0.7
2015-Aug-20 19:30N 32°56' W 117°40'  
2015-Aug-16 16:32N 33°18' W 118°12'  
Track history (hours):
 
Tides and Currents Weather Stations Pressure Air Temp Water Temp Dewpoint Dewpoint Depression Visibility Wind Speed Wind Dir Waves Ship Positions

Truth

Owner: TRUTH AQUATIES INC, SANTA BARBARA, CA. More information available from US FCC via Universal Licensing System and Coast Guard Vessel Documentation Center.

Last reported at 2015-Aug-26 02:20 UTC. Time now 2015-Aug-30 19:57 UTC.
Position N 33°43' W 118°24'.

Length 22 m.

Type: Diving. MMSI: 367384840.

Date/timePositionNaut miles runAvg speedWind from/ knotsBaromVisibWave heightAir tempDewpointWater temp
2015-Aug-26 02:20N 33°43' W 118°24'26 9.2
2015-Aug-25 23:31N 33°33' W 117°55'9 9.2
2015-Aug-25 22:33N 33°29' W 117°46'  
2015-Aug-21 16:28N 33°13' W 117°32'6 0.5
2015-Aug-21 04:11N 33°11' W 117°25'6 9.9
2015-Aug-21 03:33N 33°06' W 117°29'9 8.3
2015-Aug-21 02:29N 32°59' W 117°35'1 1.5
2015-Aug-21 01:33N 32°58' W 117°37'1 1.2
2015-Aug-21 00:29N 32°57' W 117°37'1 1.2
2015-Aug-20 23:32N 32°58' W 117°37'3 0.7
2015-Aug-20 19:30N 32°56' W 117°40'  
2015-Aug-16 16:32N 33°18' W 118°12'  

Dump ship's entire track history